sensor_id;sensor_type;location;lat;lon;timestamp;temperature;humidity
41928;DHT22;27616;51.420;6.788;2023-12-20T00:00:20;7.40;99.90
41928;DHT22;27616;51.420;6.788;2023-12-20T00:02:46;7.30;99.90
41928;DHT22;27616;51.420;6.788;2023-12-20T00:05:13;7.30;99.90
41928;DHT22;27616;51.420;6.788;2023-12-20T00:07:39;7.30;99.90
41928;DHT22;27616;51.420;6.788;2023-12-20T00:10:05;7.30;99.90
41928;DHT22;27616;51.420;6.788;2023-12-20T00:12:31;7.30;99.90
41928;DHT22;27616;51.420;6.788;2023-12-20T00:14:56;7.40;99.90
41928;DHT22;27616;51.420;6.788;2023-12-20T00:17:22;7.30;99.90
41928;DHT22;27616;51.420;6.788;2023-12-20T00:19:47;7.20;99.90
41928;DHT22;27616;51.420;6.788;2023-12-20T00:22:13;7.20;99.90
41928;DHT22;27616;51.420;6.788;2023-12-20T00:24:38;7.10;99.90
41928;DHT22;27616;51.420;6.788;2023-12-20T00:27:04;7.00;99.90
41928;DHT22;27616;51.420;6.788;2023-12-20T00:29:30;6.90;99.90
41928;DHT22;27616;51.420;6.788;2023-12-20T00:31:55;6.90;99.90
41928;DHT22;27616;51.420;6.788;2023-12-20T00:34:21;6.90;99.90
41928;DHT22;27616;51.420;6.788;2023-12-20T00:36:47;6.90;99.90
41928;DHT22;27616;51.420;6.788;2023-12-20T00:39:12;6.80;99.90
41928;DHT22;27616;51.420;6.788;2023-12-20T00:41:38;6.80;99.90
41928;DHT22;27616;51.420;6.788;2023-12-20T00:44:04;6.80;99.90
41928;DHT22;27616;51.420;6.788;2023-12-20T00:46:29;6.80;99.90
41928;DHT22;27616;51.420;6.788;2023-12-20T00:48:55;6.80;99.90
41928;DHT22;27616;51.420;6.788;2023-12-20T00:51:20;6.80;99.90
41928;DHT22;27616;51.420;6.788;2023-12-20T00:53:49;6.80;99.90
41928;DHT22;27616;51.420;6.788;2023-12-20T00:56:14;6.80;99.90
41928;DHT22;27616;51.420;6.788;2023-12-20T00:58:40;6.80;99.90
41928;DHT22;27616;51.420;6.788;2023-12-20T01:01:06;6.80;99.90
41928;DHT22;27616;51.420;6.788;2023-12-20T01:03:31;6.90;99.90
41928;DHT22;27616;51.420;6.788;2023-12-20T01:05:57;7.00;99.90
41928;DHT22;27616;51.420;6.788;2023-12-20T01:08:22;7.00;99.90
41928;DHT22;27616;51.420;6.788;2023-12-20T01:10:48;7.00;99.90
41928;DHT22;27616;51.420;6.788;2023-12-20T01:13:14;7.00;99.90
41928;DHT22;27616;51.420;6.788;2023-12-20T01:15:39;7.00;99.90
41928;DHT22;27616;51.420;6.788;2023-12-20T01:18:05;7.10;99.90
41928;DHT22;27616;51.420;6.788;2023-12-20T01:20:30;7.00;99.90
41928;DHT22;27616;51.420;6.788;2023-12-20T01:22:56;7.10;99.90
41928;DHT22;27616;51.420;6.788;2023-12-20T01:25:22;7.10;99.90
41928;DHT22;27616;51.420;6.788;2023-12-20T01:27:47;7.10;99.90
41928;DHT22;27616;51.420;6.788;2023-12-20T01:30:14;7.10;99.90
41928;DHT22;27616;51.420;6.788;2023-12-20T01:32:40;7.10;99.90
41928;DHT22;27616;51.420;6.788;2023-12-20T01:35:05;7.10;99.90
41928;DHT22;27616;51.420;6.788;2023-12-20T01:37:31;7.00;99.90
41928;DHT22;27616;51.420;6.788;2023-12-20T01:39:57;7.00;99.90
41928;DHT22;27616;51.420;6.788;2023-12-20T01:42:24;6.90;99.90
41928;DHT22;27616;51.420;6.788;2023-12-20T01:44:49;6.90;99.90
41928;DHT22;27616;51.420;6.788;2023-12-20T01:47:15;6.90;99.90
41928;DHT22;27616;51.420;6.788;2023-12-20T01:49:41;6.80;99.90
41928;DHT22;27616;51.420;6.788;2023-12-20T01:52:07;6.80;99.90
41928;DHT22;27616;51.420;6.788;2023-12-20T01:54:34;6.70;99.90
41928;DHT22;27616;51.420;6.788;2023-12-20T01:57:00;6.70;99.90
41928;DHT22;27616;51.420;6.788;2023-12-20T01:59:26;6.70;99.90
41928;DHT22;27616;51.420;6.788;2023-12-20T02:01:54;6.60;99.90
41928;DHT22;27616;51.420;6.788;2023-12-20T02:04:20;6.60;99.90
41928;DHT22;27616;51.420;6.788;2023-12-20T02:06:46;6.50;99.90
41928;DHT22;27616;51.420;6.788;2023-12-20T02:09:12;6.40;99.90
41928;DHT22;27616;51.420;6.788;2023-12-20T02:11:38;6.40;99.90
41928;DHT22;27616;51.420;6.788;2023-12-20T02:14:03;6.40;99.90
41928;DHT22;27616;51.420;6.788;2023-12-20T02:16:29;6.40;99.90
41928;DHT22;27616;51.420;6.788;2023-12-20T02:18:54;6.40;99.90
41928;DHT22;27616;51.420;6.788;2023-12-20T02:21:40;6.40;99.90
41928;DHT22;27616;51.420;6.788;2023-12-20T02:24:06;6.40;99.90
41928;DHT22;27616;51.420;6.788;2023-12-20T02:26:32;6.40;99.90
41928;DHT22;27616;51.420;6.788;2023-12-20T02:28:59;6.40;99.90
41928;DHT22;27616;51.420;6.788;2023-12-20T02:31:24;6.50;99.90
41928;DHT22;27616;51.420;6.788;2023-12-20T02:33:50;6.50;99.90
41928;DHT22;27616;51.420;6.788;2023-12-20T02:36:15;6.40;99.90
41928;DHT22;27616;51.420;6.788;2023-12-20T02:38:41;6.40;99.90
41928;DHT22;27616;51.420;6.788;2023-12-20T02:41:07;6.30;99.90
41928;DHT22;27616;51.420;6.788;2023-12-20T02:43:32;6.30;99.90
41928;DHT22;27616;51.420;6.788;2023-12-20T02:45:58;6.20;99.90
41928;DHT22;27616;51.420;6.788;2023-12-20T02:48:23;6.10;99.90
41928;DHT22;27616;51.420;6.788;2023-12-20T02:50:49;6.10;99.90
41928;DHT22;27616;51.420;6.788;2023-12-20T02:53:15;6.10;99.90
41928;DHT22;27616;51.420;6.788;2023-12-20T02:55:40;6.00;99.90
41928;DHT22;27616;51.420;6.788;2023-12-20T02:58:06;6.00;99.90
41928;DHT22;27616;51.420;6.788;2023-12-20T03:00:31;6.00;99.90
41928;DHT22;27616;51.420;6.788;2023-12-20T03:02:57;6.00;99.90
41928;DHT22;27616;51.420;6.788;2023-12-20T03:05:25;5.90;99.90
41928;DHT22;27616;51.420;6.788;2023-12-20T03:07:50;5.90;99.90
41928;DHT22;27616;51.420;6.788;2023-12-20T03:10:18;5.90;99.90
41928;DHT22;27616;51.420;6.788;2023-12-20T03:12:43;5.90;99.90
41928;DHT22;27616;51.420;6.788;2023-12-20T03:15:10;5.90;99.90
41928;DHT22;27616;51.420;6.788;2023-12-20T03:17:35;5.90;99.90
41928;DHT22;27616;51.420;6.788;2023-12-20T03:20:01;5.80;99.90
41928;DHT22;27616;51.420;6.788;2023-12-20T03:22:26;5.80;99.90
41928;DHT22;27616;51.420;6.788;2023-12-20T03:24:52;5.90;99.90
41928;DHT22;27616;51.420;6.788;2023-12-20T03:27:18;5.90;99.90
41928;DHT22;27616;51.420;6.788;2023-12-20T03:29:43;5.90;99.90
41928;DHT22;27616;51.420;6.788;2023-12-20T03:32:09;5.90;99.90
41928;DHT22;27616;51.420;6.788;2023-12-20T03:34:34;6.00;99.90
41928;DHT22;27616;51.420;6.788;2023-12-20T03:37:00;6.00;99.90
41928;DHT22;27616;51.420;6.788;2023-12-20T03:39:26;6.00;99.90
41928;DHT22;27616;51.420;6.788;2023-12-20T03:41:51;6.00;99.90
41928;DHT22;27616;51.420;6.788;2023-12-20T03:44:17;6.00;99.90
41928;DHT22;27616;51.420;6.788;2023-12-20T03:46:42;5.90;99.90
41928;DHT22;27616;51.420;6.788;2023-12-20T03:49:08;6.00;99.90
41928;DHT22;27616;51.420;6.788;2023-12-20T03:51:33;5.90;99.90
41928;DHT22;27616;51.420;6.788;2023-12-20T03:53:59;6.00;99.90
41928;DHT22;27616;51.420;6.788;2023-12-20T03:56:25;6.00;99.90
41928;DHT22;27616;51.420;6.788;2023-12-20T03:58:50;5.90;99.90
41928;DHT22;27616;51.420;6.788;2023-12-20T04:01:16;5.90;99.90
41928;DHT22;27616;51.420;6.788;2023-12-20T04:03:41;5.90;99.90
41928;DHT22;27616;51.420;6.788;2023-12-20T04:06:07;5.80;99.90
41928;DHT22;27616;51.420;6.788;2023-12-20T04:08:32;5.80;99.90
41928;DHT22;27616;51.420;6.788;2023-12-20T04:10:58;5.70;99.90
41928;DHT22;27616;51.420;6.788;2023-12-20T04:13:24;5.80;99.90
41928;DHT22;27616;51.420;6.788;2023-12-20T04:15:49;5.80;99.90
41928;DHT22;27616;51.420;6.788;2023-12-20T04:18:16;5.80;99.90
41928;DHT22;27616;51.420;6.788;2023-12-20T04:20:42;5.80;99.90
41928;DHT22;27616;51.420;6.788;2023-12-20T04:23:07;5.70;99.90
41928;DHT22;27616;51.420;6.788;2023-12-20T04:25:34;5.60;99.90
41928;DHT22;27616;51.420;6.788;2023-12-20T04:27:59;5.70;99.90
41928;DHT22;27616;51.420;6.788;2023-12-20T04:30:25;5.70;99.90
41928;DHT22;27616;51.420;6.788;2023-12-20T04:32:50;5.80;99.90
41928;DHT22;27616;51.420;6.788;2023-12-20T04:35:16;5.70;99.90
41928;DHT22;27616;51.420;6.788;2023-12-20T04:37:42;5.70;99.90
41928;DHT22;27616;51.420;6.788;2023-12-20T04:40:07;5.70;99.90
41928;DHT22;27616;51.420;6.788;2023-12-20T04:42:33;5.70;99.90
41928;DHT22;27616;51.420;6.788;2023-12-20T04:44:59;5.90;99.90
41928;DHT22;27616;51.420;6.788;2023-12-20T04:47:25;5.90;99.90
41928;DHT22;27616;51.420;6.788;2023-12-20T04:49:50;5.90;99.90
41928;DHT22;27616;51.420;6.788;2023-12-20T04:52:16;5.90;99.90
41928;DHT22;27616;51.420;6.788;2023-12-20T04:54:41;5.90;99.90
41928;DHT22;27616;51.420;6.788;2023-12-20T04:57:07;5.90;99.90
41928;DHT22;27616;51.420;6.788;2023-12-20T04:59:32;5.90;99.90
41928;DHT22;27616;51.420;6.788;2023-12-20T05:01:58;5.90;99.90
41928;DHT22;27616;51.420;6.788;2023-12-20T05:04:24;5.80;99.90
41928;DHT22;27616;51.420;6.788;2023-12-20T05:06:49;5.80;99.90
41928;DHT22;27616;51.420;6.788;2023-12-20T05:09:15;5.80;99.90
41928;DHT22;27616;51.420;6.788;2023-12-20T05:11:41;5.80;99.90
41928;DHT22;27616;51.420;6.788;2023-12-20T05:14:07;5.70;99.90
41928;DHT22;27616;51.420;6.788;2023-12-20T05:16:32;5.70;99.90
41928;DHT22;27616;51.420;6.788;2023-12-20T05:18:58;5.60;99.90
41928;DHT22;27616;51.420;6.788;2023-12-20T05:21:26;5.60;99.90
41928;DHT22;27616;51.420;6.788;2023-12-20T05:23:52;5.50;99.90
41928;DHT22;27616;51.420;6.788;2023-12-20T05:26:17;5.60;99.90
41928;DHT22;27616;51.420;6.788;2023-12-20T05:28:44;5.60;99.90
41928;DHT22;27616;51.420;6.788;2023-12-20T05:31:09;5.70;99.90
41928;DHT22;27616;51.420;6.788;2023-12-20T05:33:35;5.70;99.90
41928;DHT22;27616;51.420;6.788;2023-12-20T05:36:00;5.80;99.90
41928;DHT22;27616;51.420;6.788;2023-12-20T05:38:26;5.80;99.90
41928;DHT22;27616;51.420;6.788;2023-12-20T05:40:52;5.80;99.90
41928;DHT22;27616;51.420;6.788;2023-12-20T05:43:17;5.80;99.90
41928;DHT22;27616;51.420;6.788;2023-12-20T05:45:43;5.80;99.90
41928;DHT22;27616;51.420;6.788;2023-12-20T05:48:08;5.80;99.90
41928;DHT22;27616;51.420;6.788;2023-12-20T05:50:34;5.80;99.90
41928;DHT22;27616;51.420;6.788;2023-12-20T05:53:00;5.80;99.90
41928;DHT22;27616;51.420;6.788;2023-12-20T05:55:26;5.90;99.90
41928;DHT22;27616;51.420;6.788;2023-12-20T05:57:51;6.00;99.90
41928;DHT22;27616;51.420;6.788;2023-12-20T06:00:17;5.90;99.90
41928;DHT22;27616;51.420;6.788;2023-12-20T06:02:43;6.00;99.90
41928;DHT22;27616;51.420;6.788;2023-12-20T06:05:09;6.00;99.90
41928;DHT22;27616;51.420;6.788;2023-12-20T06:07:34;6.00;99.90
41928;DHT22;27616;51.420;6.788;2023-12-20T06:10:00;6.00;99.90
41928;DHT22;27616;51.420;6.788;2023-12-20T06:12:25;6.00;99.90
41928;DHT22;27616;51.420;6.788;2023-12-20T06:14:52;6.10;99.90
41928;DHT22;27616;51.420;6.788;2023-12-20T06:17:18;6.10;99.90
41928;DHT22;27616;51.420;6.788;2023-12-20T06:19:44;6.10;99.90
41928;DHT22;27616;51.420;6.788;2023-12-20T06:22:14;6.20;99.90
41928;DHT22;27616;51.420;6.788;2023-12-20T06:24:39;6.10;99.90
41928;DHT22;27616;51.420;6.788;2023-12-20T06:27:05;6.20;99.90
41928;DHT22;27616;51.420;6.788;2023-12-20T06:29:30;6.20;99.90
41928;DHT22;27616;51.420;6.788;2023-12-20T06:31:56;6.20;99.90
41928;DHT22;27616;51.420;6.788;2023-12-20T06:34:22;6.20;99.90
41928;DHT22;27616;51.420;6.788;2023-12-20T06:36:48;6.20;99.90
41928;DHT22;27616;51.420;6.788;2023-12-20T06:39:14;6.30;99.90
41928;DHT22;27616;51.420;6.788;2023-12-20T06:41:39;6.30;99.90
41928;DHT22;27616;51.420;6.788;2023-12-20T06:44:05;6.30;99.90
41928;DHT22;27616;51.420;6.788;2023-12-20T06:46:31;6.30;99.90
41928;DHT22;27616;51.420;6.788;2023-12-20T06:48:56;6.20;99.90
41928;DHT22;27616;51.420;6.788;2023-12-20T06:51:22;6.30;99.90
41928;DHT22;27616;51.420;6.788;2023-12-20T06:53:51;6.30;99.90
41928;DHT22;27616;51.420;6.788;2023-12-20T06:56:17;6.30;99.90
41928;DHT22;27616;51.420;6.788;2023-12-20T06:58:43;6.40;99.90
41928;DHT22;27616;51.420;6.788;2023-12-20T07:01:15;6.40;99.90
41928;DHT22;27616;51.420;6.788;2023-12-20T07:03:40;6.40;99.90
41928;DHT22;27616;51.420;6.788;2023-12-20T07:06:07;6.40;99.90
41928;DHT22;27616;51.420;6.788;2023-12-20T07:08:32;6.40;99.90
41928;DHT22;27616;51.420;6.788;2023-12-20T07:10:58;6.50;99.90
41928;DHT22;27616;51.420;6.788;2023-12-20T07:13:24;6.50;99.90
41928;DHT22;27616;51.420;6.788;2023-12-20T07:15:50;6.40;99.90
41928;DHT22;27616;51.420;6.788;2023-12-20T07:18:16;6.50;99.90
41928;DHT22;27616;51.420;6.788;2023-12-20T07:20:42;6.50;99.90
41928;DHT22;27616;51.420;6.788;2023-12-20T07:23:08;6.50;99.90
41928;DHT22;27616;51.420;6.788;2023-12-20T07:25:34;6.50;99.90
41928;DHT22;27616;51.420;6.788;2023-12-20T07:28:00;6.50;99.90
41928;DHT22;27616;51.420;6.788;2023-12-20T07:30:25;6.50;99.90
41928;DHT22;27616;51.420;6.788;2023-12-20T07:32:51;6.50;99.90
41928;DHT22;27616;51.420;6.788;2023-12-20T07:35:18;6.50;99.90
41928;DHT22;27616;51.420;6.788;2023-12-20T07:37:43;6.60;99.90
41928;DHT22;27616;51.420;6.788;2023-12-20T07:40:09;6.60;99.90
41928;DHT22;27616;51.420;6.788;2023-12-20T07:42:35;6.60;99.90
41928;DHT22;27616;51.420;6.788;2023-12-20T07:45:01;6.60;99.90
41928;DHT22;27616;51.420;6.788;2023-12-20T07:47:26;6.70;99.90
41928;DHT22;27616;51.420;6.788;2023-12-20T07:49:52;6.70;99.90
41928;DHT22;27616;51.420;6.788;2023-12-20T07:52:18;6.70;99.90
41928;DHT22;27616;51.420;6.788;2023-12-20T07:54:45;6.70;99.90
41928;DHT22;27616;51.420;6.788;2023-12-20T07:57:11;6.70;99.90
41928;DHT22;27616;51.420;6.788;2023-12-20T07:59:37;6.70;99.90
41928;DHT22;27616;51.420;6.788;2023-12-20T08:02:03;6.70;99.90
41928;DHT22;27616;51.420;6.788;2023-12-20T08:04:28;6.70;99.90
41928;DHT22;27616;51.420;6.788;2023-12-20T08:06:54;6.80;99.90
41928;DHT22;27616;51.420;6.788;2023-12-20T08:09:20;6.80;99.90
41928;DHT22;27616;51.420;6.788;2023-12-20T08:11:49;6.80;99.90
41928;DHT22;27616;51.420;6.788;2023-12-20T08:14:16;6.70;99.90
41928;DHT22;27616;51.420;6.788;2023-12-20T08:16:41;6.80;99.90
41928;DHT22;27616;51.420;6.788;2023-12-20T08:19:07;6.80;99.90
41928;DHT22;27616;51.420;6.788;2023-12-20T08:21:33;6.80;99.90
41928;DHT22;27616;51.420;6.788;2023-12-20T08:23:59;6.80;99.90
41928;DHT22;27616;51.420;6.788;2023-12-20T08:26:26;6.70;99.90
41928;DHT22;27616;51.420;6.788;2023-12-20T08:28:51;6.80;99.90
41928;DHT22;27616;51.420;6.788;2023-12-20T08:31:18;6.80;99.90
41928;DHT22;27616;51.420;6.788;2023-12-20T08:33:44;6.80;99.90
41928;DHT22;27616;51.420;6.788;2023-12-20T08:36:11;6.80;99.90
41928;DHT22;27616;51.420;6.788;2023-12-20T08:38:36;6.80;99.90
41928;DHT22;27616;51.420;6.788;2023-12-20T08:41:02;6.80;99.90
41928;DHT22;27616;51.420;6.788;2023-12-20T08:43:33;6.80;99.90
41928;DHT22;27616;51.420;6.788;2023-12-20T08:45:59;6.80;99.90
41928;DHT22;27616;51.420;6.788;2023-12-20T08:48:25;6.80;99.90
41928;DHT22;27616;51.420;6.788;2023-12-20T08:50:50;6.80;99.90
41928;DHT22;27616;51.420;6.788;2023-12-20T08:53:18;6.80;99.90
41928;DHT22;27616;51.420;6.788;2023-12-20T08:55:44;6.80;99.90
41928;DHT22;27616;51.420;6.788;2023-12-20T08:58:10;6.80;99.90
41928;DHT22;27616;51.420;6.788;2023-12-20T09:00:35;6.80;99.90
41928;DHT22;27616;51.420;6.788;2023-12-20T09:03:02;6.80;99.90
41928;DHT22;27616;51.420;6.788;2023-12-20T09:05:27;6.80;99.90
41928;DHT22;27616;51.420;6.788;2023-12-20T09:07:54;6.80;99.90
41928;DHT22;27616;51.420;6.788;2023-12-20T09:10:19;6.80;99.90
41928;DHT22;27616;51.420;6.788;2023-12-20T09:12:51;6.80;99.90
41928;DHT22;27616;51.420;6.788;2023-12-20T09:15:19;6.80;99.90
41928;DHT22;27616;51.420;6.788;2023-12-20T09:17:45;6.80;99.90
41928;DHT22;27616;51.420;6.788;2023-12-20T09:20:10;6.80;99.90
41928;DHT22;27616;51.420;6.788;2023-12-20T09:22:36;6.80;99.90
41928;DHT22;27616;51.420;6.788;2023-12-20T09:25:04;6.80;99.90
41928;DHT22;27616;51.420;6.788;2023-12-20T09:27:30;6.90;99.90
41928;DHT22;27616;51.420;6.788;2023-12-20T09:29:55;6.90;99.90
41928;DHT22;27616;51.420;6.788;2023-12-20T09:32:21;6.90;99.90
41928;DHT22;27616;51.420;6.788;2023-12-20T09:34:47;6.90;99.90
41928;DHT22;27616;51.420;6.788;2023-12-20T09:37:13;6.90;99.90
41928;DHT22;27616;51.420;6.788;2023-12-20T09:39:39;6.90;99.90
41928;DHT22;27616;51.420;6.788;2023-12-20T09:42:05;6.90;99.90
41928;DHT22;27616;51.420;6.788;2023-12-20T09:44:32;6.80;99.90
41928;DHT22;27616;51.420;6.788;2023-12-20T09:47:06;6.80;99.90
41928;DHT22;27616;51.420;6.788;2023-12-20T09:49:33;6.90;99.90
41928;DHT22;27616;51.420;6.788;2023-12-20T09:52:00;6.90;99.90
41928;DHT22;27616;51.420;6.788;2023-12-20T09:54:28;6.90;99.90
41928;DHT22;27616;51.420;6.788;2023-12-20T09:56:53;6.90;99.90
41928;DHT22;27616;51.420;6.788;2023-12-20T09:59:19;7.00;99.90
41928;DHT22;27616;51.420;6.788;2023-12-20T10:01:45;7.00;99.90
41928;DHT22;27616;51.420;6.788;2023-12-20T10:04:12;7.00;99.90
41928;DHT22;27616;51.420;6.788;2023-12-20T10:06:42;7.00;99.90
41928;DHT22;27616;51.420;6.788;2023-12-20T10:09:11;7.00;99.90
41928;DHT22;27616;51.420;6.788;2023-12-20T10:11:38;7.00;99.90
41928;DHT22;27616;51.420;6.788;2023-12-20T10:14:04;7.00;99.90
41928;DHT22;27616;51.420;6.788;2023-12-20T10:16:30;7.10;99.90
41928;DHT22;27616;51.420;6.788;2023-12-20T10:18:56;7.10;99.90
41928;DHT22;27616;51.420;6.788;2023-12-20T10:21:22;7.20;99.90
41928;DHT22;27616;51.420;6.788;2023-12-20T10:23:50;7.20;99.90
41928;DHT22;27616;51.420;6.788;2023-12-20T10:26:26;7.20;99.90
41928;DHT22;27616;51.420;6.788;2023-12-20T10:28:56;7.30;99.90
41928;DHT22;27616;51.420;6.788;2023-12-20T10:31:42;7.30;99.90
41928;DHT22;27616;51.420;6.788;2023-12-20T10:34:08;7.30;99.90
41928;DHT22;27616;51.420;6.788;2023-12-20T10:36:33;7.30;99.90
41928;DHT22;27616;51.420;6.788;2023-12-20T10:39:00;7.40;99.90
41928;DHT22;27616;51.420;6.788;2023-12-20T10:41:31;7.30;99.90
41928;DHT22;27616;51.420;6.788;2023-12-20T10:44:03;7.40;99.90
41928;DHT22;27616;51.420;6.788;2023-12-20T10:46:34;7.40;99.90
41928;DHT22;27616;51.420;6.788;2023-12-20T10:49:02;7.30;99.90
41928;DHT22;27616;51.420;6.788;2023-12-20T10:51:28;7.30;99.90
41928;DHT22;27616;51.420;6.788;2023-12-20T10:53:55;7.30;99.90
41928;DHT22;27616;51.420;6.788;2023-12-20T10:56:22;7.30;99.90
41928;DHT22;27616;51.420;6.788;2023-12-20T10:58:49;7.40;99.90
41928;DHT22;27616;51.420;6.788;2023-12-20T11:01:17;7.30;99.90
41928;DHT22;27616;51.420;6.788;2023-12-20T11:03:50;7.40;99.90
41928;DHT22;27616;51.420;6.788;2023-12-20T11:06:45;7.40;99.90
41928;DHT22;27616;51.420;6.788;2023-12-20T11:09:33;7.40;99.90
41928;DHT22;27616;51.420;6.788;2023-12-20T11:14:39;7.40;99.90
41928;DHT22;27616;51.420;6.788;2023-12-20T11:17:10;7.40;99.90
41928;DHT22;27616;51.420;6.788;2023-12-20T11:22:26;7.40;99.90
41928;DHT22;27616;51.420;6.788;2023-12-20T11:24:54;7.50;99.90
41928;DHT22;27616;51.420;6.788;2023-12-20T11:27:21;7.50;99.90
41928;DHT22;27616;51.420;6.788;2023-12-20T11:29:55;7.60;99.90
41928;DHT22;27616;51.420;6.788;2023-12-20T11:34:57;7.80;99.90
41928;DHT22;27616;51.420;6.788;2023-12-20T11:37:29;7.80;99.90
41928;DHT22;27616;51.420;6.788;2023-12-20T11:40:06;7.80;99.90
41928;DHT22;27616;51.420;6.788;2023-12-20T11:42:42;7.80;99.90
41928;DHT22;27616;51.420;6.788;2023-12-20T11:45:18;7.80;99.90
41928;DHT22;27616;51.420;6.788;2023-12-20T11:47:48;7.80;99.90
41928;DHT22;27616;51.420;6.788;2023-12-20T11:50:16;7.70;99.90
41928;DHT22;27616;51.420;6.788;2023-12-20T11:52:41;7.70;99.90
41928;DHT22;27616;51.420;6.788;2023-12-20T11:55:07;7.60;99.90
41928;DHT22;27616;51.420;6.788;2023-12-20T11:57:33;7.60;99.90
41928;DHT22;27616;51.420;6.788;2023-12-20T11:59:59;7.50;99.90
41928;DHT22;27616;51.420;6.788;2023-12-20T12:02:25;7.50;99.90
41928;DHT22;27616;51.420;6.788;2023-12-20T12:04:50;7.40;99.90
41928;DHT22;27616;51.420;6.788;2023-12-20T12:07:17;7.40;99.90
41928;DHT22;27616;51.420;6.788;2023-12-20T12:09:43;7.40;99.90
41928;DHT22;27616;51.420;6.788;2023-12-20T12:12:10;7.40;99.90
41928;DHT22;27616;51.420;6.788;2023-12-20T12:14:35;7.50;99.90
41928;DHT22;27616;51.420;6.788;2023-12-20T12:17:03;7.50;99.90
41928;DHT22;27616;51.420;6.788;2023-12-20T12:19:29;7.50;99.90
41928;DHT22;27616;51.420;6.788;2023-12-20T12:22:06;7.50;99.90
41928;DHT22;27616;51.420;6.788;2023-12-20T12:24:34;7.50;99.90
41928;DHT22;27616;51.420;6.788;2023-12-20T12:27:00;7.50;99.90
41928;DHT22;27616;51.420;6.788;2023-12-20T12:29:27;7.50;99.90
41928;DHT22;27616;51.420;6.788;2023-12-20T12:31:52;7.60;99.90
41928;DHT22;27616;51.420;6.788;2023-12-20T12:34:18;7.60;99.90
41928;DHT22;27616;51.420;6.788;2023-12-20T12:36:44;7.70;99.90
41928;DHT22;27616;51.420;6.788;2023-12-20T12:39:14;7.80;99.90
41928;DHT22;27616;51.420;6.788;2023-12-20T12:41:41;7.80;99.90
41928;DHT22;27616;51.420;6.788;2023-12-20T12:44:06;7.80;99.90
41928;DHT22;27616;51.420;6.788;2023-12-20T12:46:32;7.70;99.90
41928;DHT22;27616;51.420;6.788;2023-12-20T12:48:58;7.70;99.90
41928;DHT22;27616;51.420;6.788;2023-12-20T12:51:24;7.60;99.90
41928;DHT22;27616;51.420;6.788;2023-12-20T12:53:49;7.60;99.90
41928;DHT22;27616;51.420;6.788;2023-12-20T12:56:15;7.60;99.90
41928;DHT22;27616;51.420;6.788;2023-12-20T12:58:41;7.60;99.90
41928;DHT22;27616;51.420;6.788;2023-12-20T13:01:06;7.50;99.90
41928;DHT22;27616;51.420;6.788;2023-12-20T13:03:32;7.50;99.90
41928;DHT22;27616;51.420;6.788;2023-12-20T13:05:59;7.50;99.90
41928;DHT22;27616;51.420;6.788;2023-12-20T13:08:25;7.50;99.90
41928;DHT22;27616;51.420;6.788;2023-12-20T13:10:50;7.50;99.90
41928;DHT22;27616;51.420;6.788;2023-12-20T13:13:16;7.50;99.90
41928;DHT22;27616;51.420;6.788;2023-12-20T13:15:42;7.50;99.90
41928;DHT22;27616;51.420;6.788;2023-12-20T13:18:07;7.50;99.90
41928;DHT22;27616;51.420;6.788;2023-12-20T13:20:33;7.50;99.90
41928;DHT22;27616;51.420;6.788;2023-12-20T13:22:59;7.40;99.90
41928;DHT22;27616;51.420;6.788;2023-12-20T13:25:24;7.40;99.90
41928;DHT22;27616;51.420;6.788;2023-12-20T13:27:50;7.30;99.90
41928;DHT22;27616;51.420;6.788;2023-12-20T13:30:19;7.30;99.90
41928;DHT22;27616;51.420;6.788;2023-12-20T13:32:44;7.20;99.90
41928;DHT22;27616;51.420;6.788;2023-12-20T13:35:10;7.10;99.90
41928;DHT22;27616;51.420;6.788;2023-12-20T13:37:35;7.10;99.90
41928;DHT22;27616;51.420;6.788;2023-12-20T13:40:01;7.10;99.90
41928;DHT22;27616;51.420;6.788;2023-12-20T13:42:28;7.20;99.90
41928;DHT22;27616;51.420;6.788;2023-12-20T13:44:54;7.10;99.90
41928;DHT22;27616;51.420;6.788;2023-12-20T13:47:20;7.10;99.90
41928;DHT22;27616;51.420;6.788;2023-12-20T13:49:45;7.10;99.90
41928;DHT22;27616;51.420;6.788;2023-12-20T13:52:11;7.10;99.90
41928;DHT22;27616;51.420;6.788;2023-12-20T13:54:37;7.10;99.90
41928;DHT22;27616;51.420;6.788;2023-12-20T13:57:03;7.10;99.90
41928;DHT22;27616;51.420;6.788;2023-12-20T13:59:29;7.10;99.90
41928;DHT22;27616;51.420;6.788;2023-12-20T14:01:54;7.10;99.90
41928;DHT22;27616;51.420;6.788;2023-12-20T14:04:20;7.10;99.90
41928;DHT22;27616;51.420;6.788;2023-12-20T14:06:47;7.20;99.90
41928;DHT22;27616;51.420;6.788;2023-12-20T14:09:12;7.10;99.90
41928;DHT22;27616;51.420;6.788;2023-12-20T14:11:38;7.10;99.90
41928;DHT22;27616;51.420;6.788;2023-12-20T14:14:07;7.10;99.90
41928;DHT22;27616;51.420;6.788;2023-12-20T14:16:33;7.10;99.90
41928;DHT22;27616;51.420;6.788;2023-12-20T14:18:59;7.10;99.90
41928;DHT22;27616;51.420;6.788;2023-12-20T14:21:25;7.10;99.90
41928;DHT22;27616;51.420;6.788;2023-12-20T14:23:50;7.10;99.90
41928;DHT22;27616;51.420;6.788;2023-12-20T14:26:17;7.10;99.90
41928;DHT22;27616;51.420;6.788;2023-12-20T14:28:43;7.20;99.90
41928;DHT22;27616;51.420;6.788;2023-12-20T14:31:09;7.20;99.90
41928;DHT22;27616;51.420;6.788;2023-12-20T14:33:36;7.20;99.90
41928;DHT22;27616;51.420;6.788;2023-12-20T14:36:04;7.20;99.90
41928;DHT22;27616;51.420;6.788;2023-12-20T14:38:31;7.30;99.90
41928;DHT22;27616;51.420;6.788;2023-12-20T14:40:56;7.30;99.90
41928;DHT22;27616;51.420;6.788;2023-12-20T14:43:23;7.30;99.90
41928;DHT22;27616;51.420;6.788;2023-12-20T14:45:48;7.30;99.90
41928;DHT22;27616;51.420;6.788;2023-12-20T14:48:14;7.40;99.90
41928;DHT22;27616;51.420;6.788;2023-12-20T14:50:41;7.40;99.90
41928;DHT22;27616;51.420;6.788;2023-12-20T14:53:08;7.40;99.90
41928;DHT22;27616;51.420;6.788;2023-12-20T14:55:33;7.40;99.90
41928;DHT22;27616;51.420;6.788;2023-12-20T14:57:59;7.50;99.90
41928;DHT22;27616;51.420;6.788;2023-12-20T15:00:25;7.40;99.90
41928;DHT22;27616;51.420;6.788;2023-12-20T15:02:50;7.50;99.90
41928;DHT22;27616;51.420;6.788;2023-12-20T15:05:16;7.50;99.90
41928;DHT22;27616;51.420;6.788;2023-12-20T15:07:43;7.50;99.90
41928;DHT22;27616;51.420;6.788;2023-12-20T15:10:09;7.60;99.90
41928;DHT22;27616;51.420;6.788;2023-12-20T15:12:35;7.60;99.90
41928;DHT22;27616;51.420;6.788;2023-12-20T15:15:00;7.60;99.90
41928;DHT22;27616;51.420;6.788;2023-12-20T15:17:26;7.60;99.90
41928;DHT22;27616;51.420;6.788;2023-12-20T15:19:52;7.60;99.90
41928;DHT22;27616;51.420;6.788;2023-12-20T15:22:18;7.60;99.90
41928;DHT22;27616;51.420;6.788;2023-12-20T15:24:43;7.60;99.90
41928;DHT22;27616;51.420;6.788;2023-12-20T15:27:11;7.70;99.90
41928;DHT22;27616;51.420;6.788;2023-12-20T15:29:37;7.60;99.90
41928;DHT22;27616;51.420;6.788;2023-12-20T15:32:03;7.60;99.90
41928;DHT22;27616;51.420;6.788;2023-12-20T15:34:31;7.60;99.90
41928;DHT22;27616;51.420;6.788;2023-12-20T15:36:57;7.60;99.90
41928;DHT22;27616;51.420;6.788;2023-12-20T15:39:23;7.70;99.90
41928;DHT22;27616;51.420;6.788;2023-12-20T15:41:48;7.60;99.90
41928;DHT22;27616;51.420;6.788;2023-12-20T15:44:15;7.60;99.90
41928;DHT22;27616;51.420;6.788;2023-12-20T15:46:41;7.70;99.90